createdAt,value
2022-09-14T00:01:37.298Z,2.40
2022-09-14T00:04:07.444Z,2.40
2022-09-14T00:06:36.910Z,2.40
2022-09-14T00:09:07.326Z,2.35
2022-09-14T00:11:37.585Z,2.53
2022-09-14T00:14:06.850Z,2.50
2022-09-14T00:16:37.196Z,2.88
2022-09-14T00:19:07.470Z,2.58
2022-09-14T00:21:38.909Z,2.30
2022-09-14T00:24:08.492Z,2.75
2022-09-14T00:26:37.265Z,2.42
2022-09-14T00:29:06.109Z,2.40
2022-09-14T00:31:35.648Z,2.53
2022-09-14T00:34:04.945Z,2.90
2022-09-14T00:36:35.318Z,2.33
2022-09-14T00:39:05.413Z,2.50
2022-09-14T00:41:36.921Z,2.53
2022-09-14T00:44:07.687Z,2.40
2022-09-14T00:46:38.584Z,2.88
2022-09-14T00:49:11.634Z,3.08
2022-09-14T00:51:44.732Z,2.60
2022-09-14T00:54:14.177Z,2.75
2022-09-14T00:56:42.276Z,3.10
2022-09-14T00:59:16.938Z,3.05
2022-09-14T01:01:45.194Z,2.80
2022-09-14T01:04:13.409Z,2.80
2022-09-14T01:06:52.196Z,3.00
2022-09-14T01:09:32.147Z,2.63
2022-09-14T01:12:18.257Z,3.45
2022-09-14T01:14:52.470Z,2.50
2022-09-14T01:17:26.814Z,3.10
2022-09-14T01:20:19.975Z,3.05
2022-09-14T01:22:53.537Z,2.83
2022-09-14T01:25:55.124Z,2.78
2022-09-14T01:28:32.943Z,2.83
2022-09-14T01:31:04.530Z,3.10
2022-09-14T01:33:38.416Z,2.72
2022-09-14T01:36:10.284Z,3.25
2022-09-14T01:38:46.639Z,3.25
2022-09-14T01:41:17.996Z,3.10
2022-09-14T01:43:54.119Z,3.10
2022-09-14T01:46:29.851Z,2.92
2022-09-14T01:49:04.295Z,3.05
2022-09-14T01:51:37.642Z,2.63
2022-09-14T01:54:12.123Z,3.30
2022-09-14T01:56:44.494Z,3.50
2022-09-14T01:59:18.470Z,3.40
2022-09-14T02:01:55.036Z,2.72
2022-09-14T02:04:30.631Z,2.60
2022-09-14T02:06:59.238Z,3.03
2022-09-14T02:09:27.935Z,3.20
2022-09-14T02:12:00.778Z,3.15
2022-09-14T02:14:31.386Z,3.28
2022-09-14T02:17:00.243Z,3.17
2022-09-14T02:19:33.880Z,3.08
2022-09-14T02:22:02.201Z,3.28
2022-09-14T02:24:30.830Z,3.03
2022-09-14T02:27:00.984Z,3.00
2022-09-14T02:29:31.074Z,3.00
2022-09-14T02:32:08.873Z,2.90
2022-09-14T02:34:48.819Z,3.20
2022-09-14T02:37:21.228Z,3.08
2022-09-14T02:39:58.394Z,2.75
2022-09-14T02:42:37.242Z,2.83
2022-09-14T02:45:18.932Z,3.08
2022-09-14T02:47:55.979Z,2.95
2022-09-14T02:50:30.612Z,2.97
2022-09-14T02:53:06.076Z,3.22
2022-09-14T02:55:40.036Z,2.60
2022-09-14T02:58:09.919Z,3.20
2022-09-14T03:00:41.225Z,2.85
2022-09-14T03:03:11.655Z,2.53
2022-09-14T03:05:40.560Z,3.13
2022-09-14T03:08:10.316Z,2.85
2022-09-14T03:10:39.361Z,2.88
2022-09-14T03:13:07.670Z,2.72
2022-09-14T03:15:36.364Z,3.10
2022-09-14T03:18:10.009Z,3.10
2022-09-14T03:20:40.912Z,3.75
2022-09-14T03:23:10.871Z,3.83
2022-09-14T03:25:40.335Z,2.78
2022-09-14T03:28:09.610Z,3.33
2022-09-14T03:30:38.242Z,3.75
2022-09-14T03:33:08.029Z,3.20
2022-09-14T03:35:36.479Z,3.25
2022-09-14T03:38:04.760Z,3.75
2022-09-14T03:40:33.100Z,3.25
2022-09-14T03:43:01.452Z,3.28
2022-09-14T03:45:29.746Z,3.30
2022-09-14T03:47:58.026Z,3.20
2022-09-14T03:50:27.706Z,3.38
2022-09-14T03:52:56.302Z,2.97
2022-09-14T03:55:24.568Z,3.75
2022-09-14T03:57:55.405Z,3.25
2022-09-14T04:00:24.228Z,3.25
2022-09-14T04:02:53.010Z,3.38
2022-09-14T04:05:22.052Z,3.65
2022-09-14T04:07:51.875Z,3.30
2022-09-14T04:10:20.261Z,3.22
2022-09-14T04:12:48.587Z,3.35
2022-09-14T04:15:16.930Z,3.30
2022-09-14T04:17:45.239Z,3.63
2022-09-14T04:20:13.823Z,3.00
2022-09-14T04:22:42.173Z,3.25
2022-09-14T04:25:11.914Z,3.28
2022-09-14T04:27:40.259Z,3.30
2022-09-14T04:30:09.284Z,3.63
2022-09-14T04:32:37.642Z,3.75
2022-09-14T04:35:06.382Z,3.15
2022-09-14T04:37:35.069Z,3.45
2022-09-14T04:40:03.748Z,3.70
2022-09-14T04:42:33.497Z,3.28
2022-09-14T04:45:02.180Z,3.10
2022-09-14T04:47:31.127Z,3.30
2022-09-14T04:49:59.430Z,3.38
2022-09-14T04:52:27.759Z,3.58
2022-09-14T04:54:56.217Z,3.30
2022-09-14T04:57:24.613Z,3.50
2022-09-14T04:59:54.276Z,3.25
2022-09-14T05:02:22.673Z,3.50
2022-09-14T05:04:51.274Z,3.42
2022-09-14T05:07:19.645Z,4.00
2022-09-14T05:09:47.842Z,3.78
2022-09-14T05:12:16.151Z,3.83
2022-09-14T05:14:44.394Z,3.67
2022-09-14T05:17:14.515Z,3.92
2022-09-14T05:19:42.846Z,4.32
2022-09-14T05:22:11.103Z,3.97
2022-09-14T05:24:39.475Z,3.90
2022-09-14T05:27:07.722Z,4.00
2022-09-14T05:29:36.290Z,4.00
2022-09-14T05:32:04.754Z,3.90
2022-09-14T05:34:34.890Z,4.10
2022-09-14T05:37:03.146Z,3.58
2022-09-14T05:39:31.559Z,3.30
2022-09-14T05:41:59.843Z,3.95
2022-09-14T05:44:28.070Z,4.05
2022-09-14T05:46:56.430Z,4.07
2022-09-14T05:49:25.346Z,3.53
2022-09-14T05:51:55.034Z,3.92
2022-09-14T05:54:23.295Z,3.70
2022-09-14T05:56:51.767Z,3.65
2022-09-14T05:59:19.999Z,3.40
2022-09-14T06:01:48.328Z,3.83
2022-09-14T06:04:16.724Z,3.55
2022-09-14T06:07:01.396Z,3.70
2022-09-14T06:09:34.641Z,3.70
2022-09-14T06:12:03.249Z,3.42
2022-09-14T06:14:31.549Z,3.88
2022-09-14T06:16:59.819Z,3.17
2022-09-14T06:19:28.252Z,3.33
2022-09-14T06:21:56.448Z,3.45
2022-09-14T06:24:25.111Z,3.17
2022-09-14T06:26:54.702Z,3.40
2022-09-14T06:29:22.961Z,3.40
2022-09-14T06:31:51.263Z,3.08
2022-09-14T06:34:19.530Z,3.00
2022-09-14T06:36:48.311Z,2.90
2022-09-14T06:39:16.753Z,3.20
2022-09-14T06:41:45.053Z,3.33
2022-09-14T06:44:21.776Z,3.00
2022-09-14T06:46:50.061Z,2.95
2022-09-14T06:49:20.860Z,3.25
2022-09-14T06:51:49.400Z,3.42
2022-09-14T06:54:19.124Z,3.03
2022-09-14T06:56:48.019Z,3.42
2022-09-14T06:59:17.747Z,3.05
2022-09-14T07:01:49.753Z,3.30
2022-09-14T07:04:18.330Z,2.95
2022-09-14T07:06:48.211Z,3.15
2022-09-14T07:09:17.497Z,2.95
2022-09-14T07:11:46.201Z,3.20
2022-09-14T07:14:14.524Z,3.15
2022-09-14T07:16:42.880Z,2.90
2022-09-14T07:19:14.373Z,3.13
2022-09-14T07:21:43.519Z,3.00
2022-09-14T07:24:14.942Z,3.10
2022-09-14T07:26:44.038Z,3.28
2022-09-14T07:29:14.105Z,3.00
2022-09-14T07:31:44.038Z,3.10
2022-09-14T07:34:14.195Z,3.20
2022-09-14T07:36:43.296Z,2.95
2022-09-14T07:39:13.426Z,2.90
2022-09-14T07:41:41.848Z,2.92
2022-09-14T07:44:14.509Z,3.13
2022-09-14T07:46:44.839Z,2.88
2022-09-14T07:49:15.687Z,3.00
2022-09-14T07:51:44.259Z,2.90
2022-09-14T07:54:14.396Z,3.15
2022-09-14T07:56:43.536Z,2.97
2022-09-14T08:02:01.581Z,2.95
2022-09-14T08:04:31.390Z,3.00
2022-09-14T08:06:59.696Z,2.92
2022-09-14T08:09:28.070Z,2.70
2022-09-14T08:11:57.259Z,2.75
2022-09-14T08:14:25.561Z,2.50
2022-09-14T08:16:53.877Z,2.40
2022-09-14T08:19:22.276Z,2.60
2022-09-14T08:21:52.260Z,2.50
2022-09-14T08:24:22.319Z,2.53
2022-09-14T08:26:51.131Z,2.30
2022-09-14T08:29:20.564Z,2.28
2022-09-14T08:31:51.747Z,2.45
2022-09-14T08:34:20.774Z,2.28
2022-09-14T08:36:49.118Z,2.50
2022-09-14T08:39:19.415Z,2.58
2022-09-14T08:41:58.906Z,2.28
2022-09-14T08:44:31.421Z,2.10
2022-09-14T08:47:05.073Z,2.60
2022-09-14T08:49:47.862Z,2.42
2022-09-14T08:52:28.401Z,2.10
2022-09-14T08:55:00.235Z,2.25
2022-09-14T08:57:34.606Z,1.98
2022-09-14T09:00:10.052Z,2.03
2022-09-14T09:03:01.522Z,1.83
2022-09-14T09:05:40.005Z,1.92
2022-09-14T09:08:18.344Z,2.08
2022-09-14T09:10:49.084Z,1.58
2022-09-14T09:13:21.638Z,1.70
2022-09-14T09:15:52.363Z,1.70
2022-09-14T09:18:25.207Z,1.75
2022-09-14T09:20:56.064Z,1.88
2022-09-14T09:23:25.750Z,1.88
2022-09-14T09:26:01.705Z,1.60
2022-09-14T09:28:30.919Z,1.67
2022-09-14T09:31:05.056Z,1.58
2022-09-14T09:33:53.475Z,1.80
2022-09-14T09:36:24.641Z,1.75
2022-09-14T09:38:52.936Z,1.48
2022-09-14T09:41:25.932Z,1.73
2022-09-14T09:44:07.194Z,1.63
2022-09-14T09:46:38.385Z,1.73
2022-09-14T09:49:18.183Z,1.50
2022-09-14T09:51:46.916Z,1.35
2022-09-14T09:54:25.302Z,1.67
2022-09-14T09:56:58.422Z,1.60
2022-09-14T09:59:36.504Z,1.50
2022-09-14T10:02:29.255Z,1.58
2022-09-14T10:05:00.934Z,1.80
2022-09-14T10:07:31.192Z,1.85
2022-09-14T10:10:01.984Z,2.15
2022-09-14T10:12:32.538Z,1.60
2022-09-14T10:15:12.478Z,1.35
2022-09-14T10:17:41.053Z,1.77
2022-09-14T10:20:22.898Z,1.88
2022-09-14T10:22:51.571Z,1.42
2022-09-14T10:25:25.368Z,1.83
2022-09-14T10:28:01.362Z,1.60
2022-09-14T10:30:34.639Z,1.70
2022-09-14T10:33:05.071Z,1.77
2022-09-14T10:35:44.160Z,1.67
2022-09-14T10:38:26.737Z,1.60
2022-09-14T10:41:04.546Z,1.40
2022-09-14T10:43:45.319Z,1.73
2022-09-14T10:46:20.666Z,1.45
2022-09-14T10:49:14.945Z,1.67
2022-09-14T10:51:54.246Z,1.63
2022-09-14T10:54:47.744Z,2.05
2022-09-14T10:57:26.754Z,1.70
2022-09-14T10:59:59.353Z,2.00
2022-09-14T11:02:51.691Z,1.60
2022-09-14T11:05:24.434Z,1.90
2022-09-14T11:08:16.359Z,1.60
2022-09-14T11:10:57.916Z,1.40
2022-09-14T11:13:41.312Z,1.77
2022-09-14T11:16:27.251Z,2.00
2022-09-14T11:19:06.542Z,1.58
2022-09-14T11:21:42.784Z,2.20
2022-09-14T11:24:18.824Z,1.92
2022-09-14T11:26:51.955Z,1.77
2022-09-14T11:29:24.554Z,1.50
2022-09-14T11:32:19.338Z,1.17
2022-09-14T11:34:54.983Z,1.92
2022-09-14T11:37:31.407Z,1.38
2022-09-14T11:40:08.360Z,1.80
2022-09-14T11:42:42.092Z,1.55
2022-09-14T11:45:18.454Z,1.70
2022-09-14T11:47:54.689Z,1.58
2022-09-14T11:50:26.636Z,1.60
2022-09-14T11:53:03.758Z,1.48
2022-09-14T11:55:32.702Z,1.50
2022-09-14T11:58:02.203Z,1.60
2022-09-14T12:01:06.200Z,1.55
2022-09-14T12:03:55.592Z,1.80
2022-09-14T12:06:49.022Z,1.55
2022-09-14T12:09:44.590Z,1.50
2022-09-14T12:12:35.137Z,1.60
2022-09-14T12:15:11.991Z,1.70
2022-09-14T12:17:41.737Z,1.88
2022-09-14T12:20:43.464Z,1.60
2022-09-14T12:23:27.812Z,1.60
2022-09-14T12:26:19.846Z,1.45
2022-09-14T12:28:50.578Z,1.50
2022-09-14T12:32:01.916Z,1.48
2022-09-14T12:34:32.271Z,1.80
2022-09-14T12:37:29.859Z,1.52
2022-09-14T12:40:36.409Z,1.65
2022-09-14T12:43:47.261Z,1.60
2022-09-14T12:46:38.766Z,1.48
2022-09-14T12:49:30.753Z,2.00
2022-09-14T12:52:05.539Z,1.60
2022-09-14T12:54:51.376Z,1.73
2022-09-14T12:57:31.272Z,1.80
2022-09-14T13:00:07.498Z,1.55
2022-09-14T13:03:08.148Z,1.65
2022-09-14T13:05:36.544Z,1.50
2022-09-14T13:08:11.106Z,1.55
2022-09-14T13:10:46.741Z,1.38
2022-09-14T13:13:18.861Z,1.92
2022-09-14T13:15:53.470Z,1.45
2022-09-14T13:18:35.876Z,1.27
2022-09-14T13:21:17.843Z,1.50
2022-09-14T13:23:46.619Z,1.65
2022-09-14T13:26:20.660Z,1.60
2022-09-14T13:28:51.738Z,1.50
2022-09-14T13:31:26.801Z,1.63
2022-09-14T13:33:57.231Z,1.83
2022-09-14T13:36:27.667Z,1.38
2022-09-14T13:38:57.216Z,1.52
2022-09-14T13:41:26.988Z,1.70
2022-09-14T13:43:57.127Z,1.95
2022-09-14T13:46:27.889Z,1.80
2022-09-14T13:48:56.931Z,1.33
2022-09-14T13:51:27.427Z,1.60
2022-09-14T13:53:57.644Z,1.40
2022-09-14T13:56:31.378Z,1.40
2022-09-14T13:59:16.825Z,1.95
2022-09-14T14:01:52.972Z,1.50
2022-09-14T14:04:34.855Z,1.73
2022-09-14T14:07:06.612Z,1.35
2022-09-14T14:09:44.208Z,1.27
2022-09-14T14:12:24.542Z,1.67
2022-09-14T14:14:57.808Z,1.70
2022-09-14T14:17:37.954Z,1.38
2022-09-14T14:20:35.452Z,1.42
2022-09-14T14:23:20.092Z,1.60
2022-09-14T14:25:52.043Z,1.52
2022-09-14T14:28:26.602Z,1.48
2022-09-14T14:30:55.853Z,1.83
2022-09-14T14:33:24.602Z,1.60
2022-09-14T14:35:54.494Z,1.73
2022-09-14T14:38:23.882Z,2.03
2022-09-14T14:40:55.176Z,1.55
2022-09-14T14:43:27.372Z,1.80
2022-09-14T14:45:57.641Z,1.90
2022-09-14T14:48:26.313Z,1.48
2022-09-14T14:50:55.710Z,1.38
2022-09-14T14:53:24.479Z,1.45
2022-09-14T14:55:53.866Z,1.33
2022-09-14T14:58:24.983Z,1.70
2022-09-14T15:00:53.330Z,1.50
2022-09-14T15:03:21.688Z,1.67
2022-09-14T15:05:50.534Z,1.55
2022-09-14T15:08:20.982Z,1.52
2022-09-14T15:10:49.730Z,1.75
2022-09-14T15:13:18.105Z,1.67
2022-09-14T15:15:47.954Z,1.80
2022-09-14T15:18:16.206Z,1.35
2022-09-14T15:20:44.519Z,1.50
2022-09-14T15:23:14.223Z,1.70
2022-09-14T15:25:42.598Z,1.55
2022-09-14T15:28:10.777Z,1.60
2022-09-14T15:30:39.951Z,1.35
2022-09-14T15:33:09.731Z,1.48
2022-09-14T15:35:39.079Z,1.33
2022-09-14T15:38:07.791Z,1.23
2022-09-14T15:40:36.320Z,1.30
2022-09-14T15:43:04.992Z,1.27
2022-09-14T15:45:34.230Z,1.50
2022-09-14T15:48:03.227Z,1.65
2022-09-14T15:50:32.920Z,1.38
2022-09-14T15:53:02.839Z,1.20
2022-09-14T15:55:31.282Z,1.52
2022-09-14T15:57:59.633Z,1.52
2022-09-14T16:00:28.074Z,1.48
2022-09-14T16:02:56.284Z,1.48
2022-09-14T16:05:24.794Z,1.40
2022-09-14T16:07:55.906Z,1.52
2022-09-14T16:10:25.742Z,1.40
2022-09-14T16:12:55.414Z,1.42
2022-09-14T16:15:24.108Z,1.30
2022-09-14T16:17:53.301Z,1.38
2022-09-14T16:20:21.935Z,1.38
2022-09-14T16:22:51.212Z,1.30
2022-09-14T16:25:20.972Z,1.48
2022-09-14T16:27:50.109Z,1.00
2022-09-14T16:30:18.383Z,1.30
2022-09-14T16:32:46.644Z,1.25
2022-09-14T16:35:15.197Z,1.63
2022-09-14T16:37:43.422Z,1.30
2022-09-14T16:40:13.193Z,1.30
2022-09-14T16:42:42.946Z,1.40
2022-09-14T16:45:11.519Z,1.50
2022-09-14T16:47:39.815Z,1.40
2022-09-14T16:50:08.412Z,1.63
2022-09-14T16:52:36.706Z,1.27
2022-09-14T16:55:05.703Z,1.35
2022-09-14T16:57:33.954Z,1.40
2022-09-14T17:00:07.115Z,1.75
2022-09-14T17:02:35.521Z,1.48
2022-09-14T17:05:03.951Z,1.38
2022-09-14T17:07:32.194Z,1.60
2022-09-14T17:10:00.523Z,1.42
2022-09-14T17:12:28.852Z,1.63
2022-09-14T17:14:57.188Z,1.48
2022-09-14T17:17:26.934Z,1.45
2022-09-14T17:19:58.295Z,1.67
2022-09-14T17:22:26.542Z,1.30
2022-09-14T17:24:54.806Z,1.52
2022-09-14T17:27:23.383Z,1.27
2022-09-14T17:29:53.117Z,1.40
2022-09-14T17:32:21.423Z,1.50
2022-09-14T17:34:52.217Z,1.67
2022-09-14T17:37:20.500Z,1.40
2022-09-14T17:39:48.961Z,1.70
2022-09-14T17:42:17.250Z,1.67
2022-09-14T17:44:45.529Z,1.75
2022-09-14T17:47:13.812Z,2.03
2022-09-14T17:49:42.203Z,1.55
2022-09-14T17:52:11.810Z,1.52
2022-09-14T17:54:42.433Z,1.50
2022-09-14T17:57:10.783Z,1.45
2022-09-14T17:59:39.043Z,1.50
2022-09-14T18:02:07.861Z,1.17
2022-09-14T18:04:36.186Z,1.58
2022-09-14T18:07:06.228Z,1.85
2022-09-14T18:09:36.107Z,1.83
2022-09-14T18:12:04.775Z,1.67
2022-09-14T18:14:33.346Z,1.60
2022-09-14T18:17:01.619Z,1.42
2022-09-14T18:19:29.921Z,1.50
2022-09-14T18:21:58.751Z,1.70
2022-09-14T18:24:27.045Z,1.52
2022-09-14T18:26:57.341Z,1.63
2022-09-14T18:29:25.767Z,1.38
2022-09-14T18:31:54.665Z,1.70
2022-09-14T18:34:23.595Z,2.10
2022-09-14T18:36:52.944Z,1.80
2022-09-14T18:39:21.225Z,1.77
2022-09-14T18:41:52.015Z,1.48
2022-09-14T18:44:22.021Z,1.83
2022-09-14T18:46:51.201Z,2.13
2022-09-14T18:49:19.664Z,1.88
2022-09-14T18:51:47.869Z,1.52
2022-09-14T18:54:16.123Z,1.90
2022-09-14T18:56:44.437Z,1.77
2022-09-14T18:59:16.569Z,1.90
2022-09-14T19:01:46.506Z,1.80
2022-09-14T19:04:15.928Z,1.80
2022-09-14T19:06:44.737Z,1.80
2022-09-14T19:09:13.711Z,1.80
2022-09-14T19:11:42.195Z,1.60
2022-09-14T19:14:12.635Z,2.15
2022-09-14T19:16:42.267Z,1.90
2022-09-14T19:19:15.135Z,1.50
2022-09-14T19:21:44.263Z,1.95
2022-09-14T19:24:14.028Z,1.90
2022-09-14T19:26:45.487Z,2.08
2022-09-14T19:29:15.466Z,2.05
2022-09-14T19:31:44.157Z,2.28
2022-09-14T19:34:13.940Z,2.25
2022-09-14T19:36:42.335Z,1.83
2022-09-14T19:39:10.985Z,1.88
2022-09-14T19:41:41.765Z,2.05
2022-09-14T19:44:10.480Z,2.05
2022-09-14T19:46:39.894Z,2.03
2022-09-14T19:49:08.831Z,2.25
2022-09-14T19:51:38.802Z,2.40
2022-09-14T19:54:07.167Z,2.72
2022-09-14T19:56:35.499Z,2.95
2022-09-14T19:59:06.215Z,2.45
2022-09-14T20:01:36.537Z,2.70
2022-09-14T20:04:06.495Z,2.30
2022-09-14T20:06:36.557Z,2.80
2022-09-14T20:09:08.872Z,2.88
2022-09-14T20:11:38.721Z,2.78
2022-09-14T20:14:09.485Z,3.08
2022-09-14T20:16:39.784Z,3.20
2022-09-14T20:19:11.445Z,2.80
2022-09-14T20:21:41.552Z,3.42
2022-09-14T20:24:16.730Z,3.28
2022-09-14T20:26:46.811Z,3.10
2022-09-14T20:29:16.389Z,3.10
2022-09-14T20:31:45.121Z,3.50
2022-09-14T20:34:14.040Z,2.83
2022-09-14T20:36:42.479Z,3.22
2022-09-14T20:39:12.405Z,3.63
2022-09-14T20:41:41.252Z,3.20
2022-09-14T20:44:10.267Z,3.13
2022-09-14T20:46:39.959Z,3.90
2022-09-14T20:49:11.444Z,3.13
2022-09-14T20:51:40.437Z,3.38
2022-09-14T20:54:10.961Z,3.53
2022-09-14T20:56:41.076Z,3.58
2022-09-14T20:59:12.591Z,3.55
2022-09-14T21:01:42.565Z,3.20
2022-09-14T21:04:12.454Z,3.28
2022-09-14T21:06:46.322Z,3.72
2022-09-14T21:09:16.867Z,4.07
2022-09-14T21:11:47.673Z,3.42
2022-09-14T21:14:17.534Z,3.17
2022-09-14T21:16:47.586Z,3.75
2022-09-14T21:19:19.768Z,3.20
2022-09-14T21:21:49.352Z,3.28
2022-09-14T21:24:18.931Z,3.42
2022-09-14T21:26:48.915Z,3.20
2022-09-14T21:29:20.435Z,3.10
2022-09-14T21:31:49.763Z,3.40
2022-09-14T21:34:18.480Z,3.50
2022-09-14T21:36:49.158Z,3.20
2022-09-14T21:39:21.628Z,3.22
2022-09-14T21:41:57.244Z,3.33
2022-09-14T21:44:30.191Z,3.50
2022-09-14T21:46:58.671Z,3.15
2022-09-14T21:49:26.974Z,3.10
2022-09-14T21:51:55.665Z,2.50
2022-09-14T21:54:24.128Z,2.70
2022-09-14T21:56:54.538Z,2.70
2022-09-14T21:59:24.180Z,2.88
2022-09-14T22:01:53.017Z,2.92
2022-09-14T22:04:23.233Z,3.53
2022-09-14T22:06:53.251Z,4.00
2022-09-14T22:09:24.388Z,4.38
2022-09-14T22:11:54.320Z,4.90
2022-09-14T22:14:25.086Z,4.40
2022-09-14T22:16:53.949Z,4.40
2022-09-14T22:19:27.498Z,4.32
2022-09-14T22:21:56.663Z,4.30
2022-09-14T22:24:33.481Z,4.18
2022-09-14T22:27:07.456Z,3.30
2022-09-14T22:29:36.050Z,3.30
2022-09-14T22:32:11.240Z,2.80
2022-09-14T22:34:41.754Z,2.65
2022-09-14T22:37:10.501Z,2.80
2022-09-14T22:39:38.865Z,2.30
2022-09-14T22:42:08.878Z,2.03
2022-09-14T22:44:37.181Z,2.03
2022-09-14T22:47:05.573Z,2.10
2022-09-14T22:49:33.931Z,2.05
2022-09-14T22:52:02.388Z,2.08
2022-09-14T22:54:30.729Z,1.70
2022-09-14T22:56:58.991Z,2.00
2022-09-14T22:59:28.697Z,2.00
2022-09-14T23:01:57.077Z,2.20
2022-09-14T23:04:27.420Z,2.20
2022-09-14T23:06:55.689Z,1.70
2022-09-14T23:09:24.022Z,2.25
2022-09-14T23:11:53.092Z,2.25
2022-09-14T23:14:21.488Z,2.20
2022-09-14T23:16:51.245Z,2.47
2022-09-14T23:19:20.089Z,2.60
2022-09-14T23:21:48.949Z,2.58
2022-09-14T23:24:17.293Z,2.33
2022-09-14T23:26:45.645Z,2.40
2022-09-14T23:29:16.997Z,2.72
2022-09-14T23:31:45.713Z,2.75
2022-09-14T23:34:15.421Z,2.88
2022-09-14T23:36:43.730Z,2.58
2022-09-14T23:39:12.072Z,2.70
2022-09-14T23:41:40.831Z,3.05
2022-09-14T23:44:13.788Z,3.45
2022-09-14T23:46:42.322Z,3.33
2022-09-14T23:49:12.392Z,3.30
2022-09-14T23:51:42.681Z,3.20
2022-09-14T23:54:11.254Z,3.20
2022-09-14T23:56:39.687Z,3.15
2022-09-14T23:59:08.682Z,3.30
